LHBP - BUDAPEST LISZT FERENC INTERNATIONAL AIRPORT

Compiled: 17:58:45 on 20/10/2018

Latest METAR/SPECI Reports

METAR LHBP 201730Z 29009KT CAVOK 14/08 Q1022 NOSIG=

Previous reports

METAR LHBP 201700Z 29012KT CAVOK 14/09 Q1022 NOSIG=
METAR LHBP 201630Z 29013KT CAVOK 15/09 Q1022 NOSIG=
METAR LHBP 201600Z 28010KT CAVOK 15/09 Q1022 NOSIG=
METAR LHBP 201530Z 28009KT CAVOK 16/09 Q1022 NOSIG=

Latest TAF report

TAF LHBP 201715Z 2018/2118 32010KT CAVOK BECMG 2022/2024 BKN025 OVC040 TEMPO 2100/2112 2800 RA SHRA BKN008 OVC020 BECMG 2106/2109 02005KT TEMPO 2112/2118 -RA BKN014 OVC030=

Valid WARNINGS

No valid warnings for LHBP